sensor_id;sensor_type;location;lat;lon;timestamp;P1;durP1;ratioP1;P2;durP2;ratioP2
52942;SDS011;38809;53.300;6.614;2023-06-04T00:00:44;9.33;;;2.60;;
52942;SDS011;38809;53.300;6.614;2023-06-04T00:03:10;9.00;;;2.75;;
52942;SDS011;38809;53.300;6.614;2023-06-04T00:05:35;4.00;;;2.55;;
52942;SDS011;38809;53.300;6.614;2023-06-04T00:08:01;4.53;;;2.78;;
52942;SDS011;38809;53.300;6.614;2023-06-04T00:10:27;5.67;;;2.30;;
52942;SDS011;38809;53.300;6.614;2023-06-04T00:12:52;4.78;;;2.22;;
52942;SDS011;38809;53.300;6.614;2023-06-04T00:15:18;7.03;;;2.80;;
52942;SDS011;38809;53.300;6.614;2023-06-04T00:17:44;7.30;;;3.10;;
52942;SDS011;38809;53.300;6.614;2023-06-04T00:20:10;4.93;;;2.70;;
52942;SDS011;38809;53.300;6.614;2023-06-04T00:22:37;4.72;;;2.30;;
52942;SDS011;38809;53.300;6.614;2023-06-04T00:25:03;4.05;;;2.13;;
52942;SDS011;38809;53.300;6.614;2023-06-04T00:27:29;5.97;;;2.22;;
52942;SDS011;38809;53.300;6.614;2023-06-04T00:29:55;5.60;;;2.20;;
52942;SDS011;38809;53.300;6.614;2023-06-04T00:32:20;6.33;;;2.50;;
52942;SDS011;38809;53.300;6.614;2023-06-04T00:34:53;7.03;;;2.95;;
52942;SDS011;38809;53.300;6.614;2023-06-04T00:37:21;5.00;;;2.70;;
52942;SDS011;38809;53.300;6.614;2023-06-04T00:39:47;6.97;;;2.30;;
52942;SDS011;38809;53.300;6.614;2023-06-04T00:42:13;9.07;;;2.53;;
52942;SDS011;38809;53.300;6.614;2023-06-04T00:44:39;6.20;;;2.90;;
52942;SDS011;38809;53.300;6.614;2023-06-04T00:47:12;6.30;;;2.35;;
52942;SDS011;38809;53.300;6.614;2023-06-04T00:49:39;5.40;;;2.53;;
52942;SDS011;38809;53.300;6.614;2023-06-04T00:52:07;4.82;;;2.20;;
52942;SDS011;38809;53.300;6.614;2023-06-04T00:54:34;6.13;;;2.40;;
52942;SDS011;38809;53.300;6.614;2023-06-04T00:57:00;4.10;;;2.13;;
52942;SDS011;38809;53.300;6.614;2023-06-04T00:59:26;5.15;;;2.60;;
52942;SDS011;38809;53.300;6.614;2023-06-04T01:04:35;4.85;;;2.50;;
52942;SDS011;38809;53.300;6.614;2023-06-04T01:07:09;7.05;;;2.70;;
52942;SDS011;38809;53.300;6.614;2023-06-04T01:09:38;6.00;;;2.42;;
52942;SDS011;38809;53.300;6.614;2023-06-04T01:12:05;6.25;;;2.83;;
52942;SDS011;38809;53.300;6.614;2023-06-04T01:14:31;6.43;;;2.75;;
52942;SDS011;38809;53.300;6.614;2023-06-04T01:22:17;8.93;;;2.38;;
52942;SDS011;38809;53.300;6.614;2023-06-04T01:25:51;5.80;;;2.20;;
52942;SDS011;38809;53.300;6.614;2023-06-04T01:27:58;5.75;;;2.30;;
52942;SDS011;38809;53.300;6.614;2023-06-04T01:30:31;2.70;;;1.45;;
52942;SDS011;38809;53.300;6.614;2023-06-04T01:33:01;6.25;;;2.10;;
52942;SDS011;38809;53.300;6.614;2023-06-04T01:35:28;6.32;;;2.22;;
52942;SDS011;38809;53.300;6.614;2023-06-04T01:37:57;5.78;;;1.85;;
52942;SDS011;38809;53.300;6.614;2023-06-04T01:40:23;4.32;;;1.30;;
52942;SDS011;38809;53.300;6.614;2023-06-04T01:42:50;2.10;;;1.10;;
52942;SDS011;38809;53.300;6.614;2023-06-04T01:45:16;2.58;;;0.93;;
52942;SDS011;38809;53.300;6.614;2023-06-04T01:47:42;1.75;;;0.77;;
52942;SDS011;38809;53.300;6.614;2023-06-04T01:50:07;1.33;;;0.80;;
52942;SDS011;38809;53.300;6.614;2023-06-04T01:52:37;1.42;;;0.70;;
52942;SDS011;38809;53.300;6.614;2023-06-04T01:55:04;1.63;;;0.90;;
52942;SDS011;38809;53.300;6.614;2023-06-04T01:57:32;2.53;;;1.10;;
52942;SDS011;38809;53.300;6.614;2023-06-04T02:00:00;3.75;;;1.38;;
52942;SDS011;38809;53.300;6.614;2023-06-04T02:02:26;3.22;;;1.60;;
52942;SDS011;38809;53.300;6.614;2023-06-04T02:04:52;7.22;;;2.05;;
52942;SDS011;38809;53.300;6.614;2023-06-04T02:07:18;7.05;;;2.50;;
52942;SDS011;38809;53.300;6.614;2023-06-04T02:09:47;5.88;;;2.20;;
52942;SDS011;38809;53.300;6.614;2023-06-04T02:14:39;8.02;;;2.65;;
52942;SDS011;38809;53.300;6.614;2023-06-04T02:17:07;4.57;;;2.30;;
52942;SDS011;38809;53.300;6.614;2023-06-04T02:19:41;6.78;;;2.58;;
52942;SDS011;38809;53.300;6.614;2023-06-04T02:22:15;5.78;;;2.35;;
52942;SDS011;38809;53.300;6.614;2023-06-04T02:24:44;4.85;;;2.30;;
52942;SDS011;38809;53.300;6.614;2023-06-04T02:27:11;4.88;;;2.40;;
52942;SDS011;38809;53.300;6.614;2023-06-04T02:29:40;6.25;;;2.40;;
52942;SDS011;38809;53.300;6.614;2023-06-04T02:32:07;9.60;;;2.75;;
52942;SDS011;38809;53.300;6.614;2023-06-04T02:34:34;6.15;;;2.60;;
52942;SDS011;38809;53.300;6.614;2023-06-04T02:37:00;5.65;;;2.67;;
52942;SDS011;38809;53.300;6.614;2023-06-04T02:39:26;6.60;;;2.50;;
52942;SDS011;38809;53.300;6.614;2023-06-04T02:41:51;5.57;;;2.65;;
52942;SDS011;38809;53.300;6.614;2023-06-04T02:44:17;5.97;;;3.00;;
52942;SDS011;38809;53.300;6.614;2023-06-04T02:46:43;5.72;;;3.08;;
52942;SDS011;38809;53.300;6.614;2023-06-04T02:51:39;4.85;;;2.75;;
52942;SDS011;38809;53.300;6.614;2023-06-04T02:54:08;5.70;;;3.33;;
52942;SDS011;38809;53.300;6.614;2023-06-04T02:56:34;5.45;;;3.15;;
52942;SDS011;38809;53.300;6.614;2023-06-04T02:59:01;7.07;;;3.40;;
52942;SDS011;38809;53.300;6.614;2023-06-04T03:01:27;6.85;;;3.50;;
52942;SDS011;38809;53.300;6.614;2023-06-04T03:03:53;8.98;;;3.78;;
52942;SDS011;38809;53.300;6.614;2023-06-04T03:06:20;5.70;;;3.30;;
52942;SDS011;38809;53.300;6.614;2023-06-04T03:08:47;5.88;;;3.78;;
52942;SDS011;38809;53.300;6.614;2023-06-04T03:11:15;4.10;;;2.40;;
52942;SDS011;38809;53.300;6.614;2023-06-04T03:13:41;4.35;;;2.20;;
52942;SDS011;38809;53.300;6.614;2023-06-04T03:16:07;2.70;;;1.73;;
52942;SDS011;38809;53.300;6.614;2023-06-04T03:18:37;5.82;;;2.63;;
52942;SDS011;38809;53.300;6.614;2023-06-04T03:21:05;5.25;;;2.97;;
52942;SDS011;38809;53.300;6.614;2023-06-04T03:23:31;6.38;;;2.90;;
52942;SDS011;38809;53.300;6.614;2023-06-04T03:25:57;5.75;;;3.22;;
52942;SDS011;38809;53.300;6.614;2023-06-04T03:28:23;5.78;;;3.38;;
52942;SDS011;38809;53.300;6.614;2023-06-04T03:30:49;5.22;;;3.13;;
52942;SDS011;38809;53.300;6.614;2023-06-04T03:33:15;7.55;;;3.75;;
52942;SDS011;38809;53.300;6.614;2023-06-04T03:35:40;7.47;;;4.03;;
52942;SDS011;38809;53.300;6.614;2023-06-04T03:38:06;4.88;;;3.13;;
52942;SDS011;38809;53.300;6.614;2023-06-04T03:40:32;3.83;;;3.00;;
52942;SDS011;38809;53.300;6.614;2023-06-04T03:42:58;6.57;;;3.15;;
52942;SDS011;38809;53.300;6.614;2023-06-04T03:45:25;9.75;;;3.80;;
52942;SDS011;38809;53.300;6.614;2023-06-04T03:47:51;4.60;;;3.30;;
52942;SDS011;38809;53.300;6.614;2023-06-04T03:50:17;5.70;;;3.63;;
52942;SDS011;38809;53.300;6.614;2023-06-04T03:52:44;5.78;;;3.45;;
52942;SDS011;38809;53.300;6.614;2023-06-04T03:55:09;6.25;;;4.20;;
52942;SDS011;38809;53.300;6.614;2023-06-04T03:57:36;12.23;;;4.30;;
52942;SDS011;38809;53.300;6.614;2023-06-04T04:00:04;6.60;;;4.00;;
52942;SDS011;38809;53.300;6.614;2023-06-04T04:02:31;5.78;;;4.30;;
52942;SDS011;38809;53.300;6.614;2023-06-04T04:04:56;8.80;;;4.10;;
52942;SDS011;38809;53.300;6.614;2023-06-04T04:07:22;5.30;;;3.50;;
52942;SDS011;38809;53.300;6.614;2023-06-04T04:09:49;5.72;;;3.40;;
52942;SDS011;38809;53.300;6.614;2023-06-04T04:12:16;6.97;;;4.03;;
52942;SDS011;38809;53.300;6.614;2023-06-04T04:14:42;5.82;;;3.75;;
52942;SDS011;38809;53.300;6.614;2023-06-04T04:17:07;6.95;;;3.92;;
52942;SDS011;38809;53.300;6.614;2023-06-04T04:19:33;6.37;;;3.83;;
52942;SDS011;38809;53.300;6.614;2023-06-04T04:21:59;5.85;;;3.78;;
52942;SDS011;38809;53.300;6.614;2023-06-04T04:24:25;6.20;;;3.53;;
52942;SDS011;38809;53.300;6.614;2023-06-04T04:26:52;5.72;;;3.60;;
52942;SDS011;38809;53.300;6.614;2023-06-04T04:29:22;6.90;;;3.85;;
52942;SDS011;38809;53.300;6.614;2023-06-04T04:31:50;6.85;;;3.47;;
52942;SDS011;38809;53.300;6.614;2023-06-04T04:34:15;5.95;;;3.63;;
52942;SDS011;38809;53.300;6.614;2023-06-04T04:36:42;5.05;;;3.30;;
52942;SDS011;38809;53.300;6.614;2023-06-04T04:39:09;7.57;;;4.07;;
52942;SDS011;38809;53.300;6.614;2023-06-04T04:41:36;12.60;;;4.57;;
52942;SDS011;38809;53.300;6.614;2023-06-04T04:44:03;6.70;;;4.05;;
52942;SDS011;38809;53.300;6.614;2023-06-04T04:46:32;10.18;;;4.15;;
52942;SDS011;38809;53.300;6.614;2023-06-04T04:48:58;6.22;;;4.07;;
52942;SDS011;38809;53.300;6.614;2023-06-04T04:51:23;7.38;;;4.15;;
52942;SDS011;38809;53.300;6.614;2023-06-04T04:53:49;6.43;;;4.10;;
52942;SDS011;38809;53.300;6.614;2023-06-04T04:56:15;7.05;;;4.18;;
52942;SDS011;38809;53.300;6.614;2023-06-04T04:58:41;6.13;;;4.33;;
52942;SDS011;38809;53.300;6.614;2023-06-04T05:01:07;10.18;;;4.30;;
52942;SDS011;38809;53.300;6.614;2023-06-04T05:03:32;8.48;;;4.47;;
52942;SDS011;38809;53.300;6.614;2023-06-04T05:05:58;6.90;;;4.00;;
52942;SDS011;38809;53.300;6.614;2023-06-04T05:08:24;10.10;;;4.60;;
52942;SDS011;38809;53.300;6.614;2023-06-04T05:10:50;7.28;;;4.25;;
52942;SDS011;38809;53.300;6.614;2023-06-04T05:13:17;7.00;;;4.05;;
52942;SDS011;38809;53.300;6.614;2023-06-04T05:15:43;8.02;;;4.43;;
52942;SDS011;38809;53.300;6.614;2023-06-04T05:18:08;8.93;;;4.50;;
52942;SDS011;38809;53.300;6.614;2023-06-04T05:20:34;7.20;;;3.30;;
52942;SDS011;38809;53.300;6.614;2023-06-04T05:23:03;8.55;;;3.97;;
52942;SDS011;38809;53.300;6.614;2023-06-04T05:25:29;8.32;;;3.35;;
52942;SDS011;38809;53.300;6.614;2023-06-04T05:27:57;4.80;;;2.75;;
52942;SDS011;38809;53.300;6.614;2023-06-04T05:30:23;6.65;;;2.80;;
52942;SDS011;38809;53.300;6.614;2023-06-04T05:32:49;6.50;;;3.08;;
52942;SDS011;38809;53.300;6.614;2023-06-04T05:37:41;5.35;;;2.97;;
52942;SDS011;38809;53.300;6.614;2023-06-04T05:40:07;6.57;;;2.90;;
52942;SDS011;38809;53.300;6.614;2023-06-04T05:42:34;7.50;;;2.17;;
52942;SDS011;38809;53.300;6.614;2023-06-04T05:45:00;5.32;;;2.60;;
52942;SDS011;38809;53.300;6.614;2023-06-04T05:47:27;4.38;;;2.28;;
52942;SDS011;38809;53.300;6.614;2023-06-04T05:49:56;7.03;;;2.55;;
52942;SDS011;38809;53.300;6.614;2023-06-04T05:52:22;3.78;;;2.00;;
52942;SDS011;38809;53.300;6.614;2023-06-04T05:54:48;6.93;;;2.33;;
52942;SDS011;38809;53.300;6.614;2023-06-04T05:57:14;5.93;;;2.85;;
52942;SDS011;38809;53.300;6.614;2023-06-04T05:59:40;4.35;;;2.40;;
52942;SDS011;38809;53.300;6.614;2023-06-04T06:02:06;6.10;;;2.27;;
52942;SDS011;38809;53.300;6.614;2023-06-04T06:04:32;7.60;;;2.80;;
52942;SDS011;38809;53.300;6.614;2023-06-04T06:06:58;4.82;;;1.80;;
52942;SDS011;38809;53.300;6.614;2023-06-04T06:09:23;6.90;;;2.17;;
52942;SDS011;38809;53.300;6.614;2023-06-04T06:11:49;3.80;;;2.10;;
52942;SDS011;38809;53.300;6.614;2023-06-04T06:14:15;9.15;;;2.08;;
52942;SDS011;38809;53.300;6.614;2023-06-04T06:16:40;5.32;;;2.20;;
52942;SDS011;38809;53.300;6.614;2023-06-04T06:19:06;7.13;;;1.88;;
52942;SDS011;38809;53.300;6.614;2023-06-04T06:21:32;5.22;;;1.80;;
52942;SDS011;38809;53.300;6.614;2023-06-04T06:23:57;4.43;;;1.50;;
52942;SDS011;38809;53.300;6.614;2023-06-04T06:26:24;4.13;;;1.75;;
52942;SDS011;38809;53.300;6.614;2023-06-04T06:28:50;3.83;;;1.70;;
52942;SDS011;38809;53.300;6.614;2023-06-04T06:31:16;5.28;;;1.65;;
52942;SDS011;38809;53.300;6.614;2023-06-04T06:33:41;4.57;;;1.80;;
52942;SDS011;38809;53.300;6.614;2023-06-04T06:36:10;3.75;;;1.60;;
52942;SDS011;38809;53.300;6.614;2023-06-04T06:38:39;4.03;;;1.73;;
52942;SDS011;38809;53.300;6.614;2023-06-04T06:43:31;4.35;;;1.42;;
52942;SDS011;38809;53.300;6.614;2023-06-04T06:45:57;7.35;;;2.05;;
52942;SDS011;38809;53.300;6.614;2023-06-04T06:48:23;4.32;;;1.70;;
52942;SDS011;38809;53.300;6.614;2023-06-04T06:50:48;4.00;;;1.73;;
52942;SDS011;38809;53.300;6.614;2023-06-04T06:53:14;7.13;;;1.70;;
52942;SDS011;38809;53.300;6.614;2023-06-04T06:55:40;5.57;;;1.88;;
52942;SDS011;38809;53.300;6.614;2023-06-04T06:58:05;4.57;;;1.70;;
52942;SDS011;38809;53.300;6.614;2023-06-04T07:00:31;7.00;;;1.88;;
52942;SDS011;38809;53.300;6.614;2023-06-04T07:02:57;4.60;;;1.85;;
52942;SDS011;38809;53.300;6.614;2023-06-04T07:05:22;3.75;;;1.58;;
52942;SDS011;38809;53.300;6.614;2023-06-04T07:07:48;4.55;;;1.45;;
52942;SDS011;38809;53.300;6.614;2023-06-04T07:10:14;4.45;;;1.77;;
52942;SDS011;38809;53.300;6.614;2023-06-04T07:12:39;3.97;;;1.17;;
52942;SDS011;38809;53.300;6.614;2023-06-04T07:15:06;5.43;;;1.90;;
52942;SDS011;38809;53.300;6.614;2023-06-04T07:17:33;4.53;;;1.70;;
52942;SDS011;38809;53.300;6.614;2023-06-04T07:19:59;4.18;;;1.60;;
52942;SDS011;38809;53.300;6.614;2023-06-04T07:22:25;3.30;;;1.27;;
52942;SDS011;38809;53.300;6.614;2023-06-04T07:24:51;4.70;;;1.50;;
52942;SDS011;38809;53.300;6.614;2023-06-04T07:27:17;4.13;;;1.75;;
52942;SDS011;38809;53.300;6.614;2023-06-04T07:29:43;4.53;;;1.40;;
52942;SDS011;38809;53.300;6.614;2023-06-04T07:34:36;4.53;;;1.20;;
52942;SDS011;38809;53.300;6.614;2023-06-04T07:37:03;5.18;;;1.63;;
52942;SDS011;38809;53.300;6.614;2023-06-04T07:39:29;4.63;;;1.40;;
52942;SDS011;38809;53.300;6.614;2023-06-04T07:41:55;5.05;;;1.35;;
52942;SDS011;38809;53.300;6.614;2023-06-04T07:44:21;3.25;;;1.15;;
52942;SDS011;38809;53.300;6.614;2023-06-04T07:46:47;3.88;;;1.70;;
52942;SDS011;38809;53.300;6.614;2023-06-04T07:49:13;4.65;;;1.30;;
52942;SDS011;38809;53.300;6.614;2023-06-04T07:51:39;3.00;;;1.02;;
52942;SDS011;38809;53.300;6.614;2023-06-04T07:54:05;3.55;;;1.58;;
52942;SDS011;38809;53.300;6.614;2023-06-04T07:56:31;5.07;;;1.40;;
52942;SDS011;38809;53.300;6.614;2023-06-04T07:58:56;2.50;;;1.40;;
52942;SDS011;38809;53.300;6.614;2023-06-04T08:01:22;4.35;;;1.60;;
52942;SDS011;38809;53.300;6.614;2023-06-04T08:06:14;3.10;;;1.10;;
52942;SDS011;38809;53.300;6.614;2023-06-04T08:08:43;3.10;;;1.58;;
52942;SDS011;38809;53.300;6.614;2023-06-04T08:11:14;2.45;;;1.10;;
52942;SDS011;38809;53.300;6.614;2023-06-04T08:13:40;3.22;;;1.05;;
52942;SDS011;38809;53.300;6.614;2023-06-04T08:16:06;3.08;;;1.13;;
52942;SDS011;38809;53.300;6.614;2023-06-04T08:20:58;2.70;;;1.23;;
52942;SDS011;38809;53.300;6.614;2023-06-04T08:23:24;3.10;;;1.23;;
52942;SDS011;38809;53.300;6.614;2023-06-04T08:25:49;5.05;;;1.02;;
52942;SDS011;38809;53.300;6.614;2023-06-04T08:28:15;3.33;;;1.10;;
52942;SDS011;38809;53.300;6.614;2023-06-04T08:33:07;2.08;;;1.00;;
52942;SDS011;38809;53.300;6.614;2023-06-04T08:35:33;2.72;;;1.05;;
52942;SDS011;38809;53.300;6.614;2023-06-04T08:37:58;2.53;;;1.13;;
52942;SDS011;38809;53.300;6.614;2023-06-04T08:40:24;3.72;;;1.08;;
52942;SDS011;38809;53.300;6.614;2023-06-04T08:45:17;3.25;;;1.08;;
52942;SDS011;38809;53.300;6.614;2023-06-04T08:47:49;1.70;;;0.90;;
52942;SDS011;38809;53.300;6.614;2023-06-04T08:50:22;3.42;;;1.40;;
52942;SDS011;38809;53.300;6.614;2023-06-04T08:52:52;4.55;;;1.17;;
52942;SDS011;38809;53.300;6.614;2023-06-04T08:55:19;3.35;;;1.30;;
52942;SDS011;38809;53.300;6.614;2023-06-04T08:57:46;2.35;;;1.00;;
52942;SDS011;38809;53.300;6.614;2023-06-04T09:00:15;3.05;;;0.85;;
52942;SDS011;38809;53.300;6.614;2023-06-04T09:02:41;3.13;;;1.20;;
52942;SDS011;38809;53.300;6.614;2023-06-04T09:05:08;2.83;;;1.10;;
52942;SDS011;38809;53.300;6.614;2023-06-04T09:07:36;2.67;;;1.13;;
52942;SDS011;38809;53.300;6.614;2023-06-04T09:10:04;3.65;;;1.33;;
52942;SDS011;38809;53.300;6.614;2023-06-04T09:12:32;2.15;;;1.13;;
52942;SDS011;38809;53.300;6.614;2023-06-04T09:15:00;3.28;;;1.35;;
52942;SDS011;38809;53.300;6.614;2023-06-04T09:17:26;3.67;;;1.27;;
52942;SDS011;38809;53.300;6.614;2023-06-04T09:19:53;2.95;;;1.10;;
52942;SDS011;38809;53.300;6.614;2023-06-04T09:22:19;3.78;;;1.15;;
52942;SDS011;38809;53.300;6.614;2023-06-04T09:24:45;2.45;;;1.13;;
52942;SDS011;38809;53.300;6.614;2023-06-04T09:27:16;2.20;;;1.05;;
52942;SDS011;38809;53.300;6.614;2023-06-04T09:29:49;3.95;;;1.25;;
52942;SDS011;38809;53.300;6.614;2023-06-04T09:32:28;3.15;;;1.08;;
52942;SDS011;38809;53.300;6.614;2023-06-04T09:34:55;2.42;;;1.00;;
52942;SDS011;38809;53.300;6.614;2023-06-04T09:37:34;2.15;;;0.93;;
52942;SDS011;38809;53.300;6.614;2023-06-04T09:40:03;2.25;;;1.02;;
52942;SDS011;38809;53.300;6.614;2023-06-04T09:42:30;2.45;;;1.10;;
52942;SDS011;38809;53.300;6.614;2023-06-04T09:45:06;3.88;;;1.20;;
52942;SDS011;38809;53.300;6.614;2023-06-04T09:47:42;1.95;;;0.93;;
52942;SDS011;38809;53.300;6.614;2023-06-04T09:50:08;2.53;;;1.17;;
52942;SDS011;38809;53.300;6.614;2023-06-04T09:52:37;1.90;;;0.93;;
52942;SDS011;38809;53.300;6.614;2023-06-04T09:55:14;3.47;;;1.30;;
52942;SDS011;38809;53.300;6.614;2023-06-04T09:57:51;4.03;;;1.27;;
52942;SDS011;38809;53.300;6.614;2023-06-04T10:00:21;2.20;;;1.23;;
52942;SDS011;38809;53.300;6.614;2023-06-04T10:02:49;1.65;;;0.82;;
52942;SDS011;38809;53.300;6.614;2023-06-04T10:05:17;2.92;;;1.00;;
52942;SDS011;38809;53.300;6.614;2023-06-04T10:07:46;6.82;;;1.30;;
52942;SDS011;38809;53.300;6.614;2023-06-04T10:10:17;2.28;;;1.10;;
52942;SDS011;38809;53.300;6.614;2023-06-04T10:12:50;3.25;;;1.15;;
52942;SDS011;38809;53.300;6.614;2023-06-04T10:15:27;2.83;;;1.20;;
52942;SDS011;38809;53.300;6.614;2023-06-04T10:17:54;3.22;;;1.13;;
52942;SDS011;38809;53.300;6.614;2023-06-04T10:20:21;3.42;;;1.45;;
52942;SDS011;38809;53.300;6.614;2023-06-04T10:22:47;2.67;;;1.00;;
52942;SDS011;38809;53.300;6.614;2023-06-04T10:25:14;2.00;;;0.80;;
52942;SDS011;38809;53.300;6.614;2023-06-04T10:27:41;2.42;;;0.80;;
52942;SDS011;38809;53.300;6.614;2023-06-04T10:30:07;2.85;;;1.05;;
52942;SDS011;38809;53.300;6.614;2023-06-04T10:32:33;3.15;;;1.10;;
52942;SDS011;38809;53.300;6.614;2023-06-04T10:35:03;2.90;;;1.30;;
52942;SDS011;38809;53.300;6.614;2023-06-04T10:37:35;3.80;;;1.27;;
52942;SDS011;38809;53.300;6.614;2023-06-04T10:40:00;5.68;;;2.03;;
52942;SDS011;38809;53.300;6.614;2023-06-04T10:42:36;2.72;;;1.10;;
52942;SDS011;38809;53.300;6.614;2023-06-04T10:45:08;3.10;;;1.40;;
52942;SDS011;38809;53.300;6.614;2023-06-04T10:47:35;4.10;;;1.10;;
52942;SDS011;38809;53.300;6.614;2023-06-04T10:50:11;3.10;;;1.10;;
52942;SDS011;38809;53.300;6.614;2023-06-04T10:52:49;2.35;;;0.90;;
52942;SDS011;38809;53.300;6.614;2023-06-04T10:55:19;4.18;;;1.05;;
52942;SDS011;38809;53.300;6.614;2023-06-04T10:57:54;3.67;;;1.70;;
52942;SDS011;38809;53.300;6.614;2023-06-04T11:00:21;5.07;;;1.20;;
52942;SDS011;38809;53.300;6.614;2023-06-04T11:02:53;2.97;;;1.35;;
52942;SDS011;38809;53.300;6.614;2023-06-04T11:05:20;3.92;;;1.08;;
52942;SDS011;38809;53.300;6.614;2023-06-04T11:07:47;3.25;;;1.05;;
52942;SDS011;38809;53.300;6.614;2023-06-04T11:10:15;3.25;;;1.23;;
52942;SDS011;38809;53.300;6.614;2023-06-04T11:12:45;2.65;;;1.10;;
52942;SDS011;38809;53.300;6.614;2023-06-04T11:15:12;2.22;;;1.30;;
52942;SDS011;38809;53.300;6.614;2023-06-04T11:17:55;4.20;;;1.45;;
52942;SDS011;38809;53.300;6.614;2023-06-04T11:20:24;2.78;;;1.30;;
52942;SDS011;38809;53.300;6.614;2023-06-04T11:22:53;1.95;;;0.88;;
52942;SDS011;38809;53.300;6.614;2023-06-04T11:25:21;3.17;;;1.20;;
52942;SDS011;38809;53.300;6.614;2023-06-04T11:27:48;2.88;;;1.20;;
52942;SDS011;38809;53.300;6.614;2023-06-04T11:30:15;3.00;;;1.00;;
52942;SDS011;38809;53.300;6.614;2023-06-04T11:35:07;4.18;;;0.90;;
52942;SDS011;38809;53.300;6.614;2023-06-04T11:37:33;3.80;;;1.10;;
52942;SDS011;38809;53.300;6.614;2023-06-04T11:40:00;3.45;;;1.13;;
52942;SDS011;38809;53.300;6.614;2023-06-04T11:42:27;3.53;;;1.35;;
52942;SDS011;38809;53.300;6.614;2023-06-04T11:44:57;2.38;;;1.00;;
52942;SDS011;38809;53.300;6.614;2023-06-04T11:47:24;2.30;;;1.00;;
52942;SDS011;38809;53.300;6.614;2023-06-04T11:52:20;1.75;;;0.80;;
52942;SDS011;38809;53.300;6.614;2023-06-04T11:54:46;2.20;;;0.80;;
52942;SDS011;38809;53.300;6.614;2023-06-04T11:57:12;5.28;;;1.10;;
52942;SDS011;38809;53.300;6.614;2023-06-04T11:59:38;1.65;;;0.85;;
52942;SDS011;38809;53.300;6.614;2023-06-04T12:02:04;3.17;;;1.10;;
52942;SDS011;38809;53.300;6.614;2023-06-04T12:04:32;2.63;;;1.13;;
52942;SDS011;38809;53.300;6.614;2023-06-04T12:06:58;3.40;;;1.27;;
52942;SDS011;38809;53.300;6.614;2023-06-04T12:09:27;5.10;;;1.65;;
52942;SDS011;38809;53.300;6.614;2023-06-04T12:12:00;3.00;;;1.00;;
52942;SDS011;38809;53.300;6.614;2023-06-04T12:14:28;2.40;;;0.98;;
52942;SDS011;38809;53.300;6.614;2023-06-04T12:19:21;2.75;;;0.77;;
52942;SDS011;38809;53.300;6.614;2023-06-04T12:21:47;3.15;;;1.50;;
52942;SDS011;38809;53.300;6.614;2023-06-04T12:24:23;5.55;;;1.10;;
52942;SDS011;38809;53.300;6.614;2023-06-04T12:26:49;2.65;;;1.08;;
52942;SDS011;38809;53.300;6.614;2023-06-04T12:29:15;2.33;;;1.02;;
52942;SDS011;38809;53.300;6.614;2023-06-04T12:31:42;5.40;;;1.08;;
52942;SDS011;38809;53.300;6.614;2023-06-04T12:34:10;2.95;;;1.30;;
52942;SDS011;38809;53.300;6.614;2023-06-04T12:36:37;3.67;;;1.45;;
52942;SDS011;38809;53.300;6.614;2023-06-04T12:41:30;4.05;;;1.33;;
52942;SDS011;38809;53.300;6.614;2023-06-04T12:43:56;2.83;;;0.90;;
52942;SDS011;38809;53.300;6.614;2023-06-04T12:46:22;1.80;;;0.90;;
52942;SDS011;38809;53.300;6.614;2023-06-04T12:51:18;3.97;;;1.00;;
52942;SDS011;38809;53.300;6.614;2023-06-04T12:53:45;2.25;;;0.98;;
52942;SDS011;38809;53.300;6.614;2023-06-04T12:56:11;2.53;;;0.98;;
52942;SDS011;38809;53.300;6.614;2023-06-04T12:58:37;2.72;;;1.10;;
52942;SDS011;38809;53.300;6.614;2023-06-04T13:01:03;3.00;;;1.13;;
52942;SDS011;38809;53.300;6.614;2023-06-04T13:03:32;3.65;;;1.17;;
52942;SDS011;38809;53.300;6.614;2023-06-04T13:05:59;2.60;;;1.20;;
52942;SDS011;38809;53.300;6.614;2023-06-04T13:08:24;2.83;;;1.08;;
52942;SDS011;38809;53.300;6.614;2023-06-04T13:10:50;3.13;;;1.30;;
52942;SDS011;38809;53.300;6.614;2023-06-04T13:13:17;1.85;;;0.88;;
52942;SDS011;38809;53.300;6.614;2023-06-04T13:15:44;6.18;;;1.48;;
52942;SDS011;38809;53.300;6.614;2023-06-04T13:18:10;2.55;;;1.40;;
52942;SDS011;38809;53.300;6.614;2023-06-04T13:23:02;5.15;;;1.17;;
52942;SDS011;38809;53.300;6.614;2023-06-04T13:27:55;4.47;;;1.42;;
52942;SDS011;38809;53.300;6.614;2023-06-04T13:30:21;3.28;;;1.30;;
52942;SDS011;38809;53.300;6.614;2023-06-04T13:32:47;3.70;;;1.33;;
52942;SDS011;38809;53.300;6.614;2023-06-04T13:35:13;3.38;;;1.35;;
52942;SDS011;38809;53.300;6.614;2023-06-04T13:37:39;3.70;;;1.30;;
52942;SDS011;38809;53.300;6.614;2023-06-04T13:40:05;2.90;;;1.20;;
52942;SDS011;38809;53.300;6.614;2023-06-04T13:44:57;4.10;;;1.05;;
52942;SDS011;38809;53.300;6.614;2023-06-04T13:47:24;3.45;;;1.27;;
52942;SDS011;38809;53.300;6.614;2023-06-04T13:49:49;2.90;;;1.10;;
52942;SDS011;38809;53.300;6.614;2023-06-04T13:52:15;3.15;;;1.10;;
52942;SDS011;38809;53.300;6.614;2023-06-04T13:54:42;2.75;;;1.42;;
52942;SDS011;38809;53.300;6.614;2023-06-04T13:57:08;2.72;;;1.20;;
52942;SDS011;38809;53.300;6.614;2023-06-04T13:59:36;4.07;;;1.00;;
52942;SDS011;38809;53.300;6.614;2023-06-04T14:04:28;3.42;;;1.02;;
52942;SDS011;38809;53.300;6.614;2023-06-04T14:06:54;5.03;;;1.45;;
52942;SDS011;38809;53.300;6.614;2023-06-04T14:09:19;2.20;;;1.08;;
52942;SDS011;38809;53.300;6.614;2023-06-04T14:11:45;3.03;;;0.98;;
52942;SDS011;38809;53.300;6.614;2023-06-04T14:14:19;2.88;;;1.05;;
52942;SDS011;38809;53.300;6.614;2023-06-04T14:16:46;3.67;;;1.40;;
52942;SDS011;38809;53.300;6.614;2023-06-04T14:19:13;3.35;;;1.38;;
52942;SDS011;38809;53.300;6.614;2023-06-04T14:21:39;10.23;;;1.67;;
52942;SDS011;38809;53.300;6.614;2023-06-04T14:24:06;3.30;;;1.30;;
52942;SDS011;38809;53.300;6.614;2023-06-04T14:26:31;2.85;;;1.25;;
52942;SDS011;38809;53.300;6.614;2023-06-04T14:28:58;2.58;;;1.20;;
52942;SDS011;38809;53.300;6.614;2023-06-04T14:31:24;5.25;;;1.60;;
52942;SDS011;38809;53.300;6.614;2023-06-04T14:33:50;3.13;;;1.10;;
52942;SDS011;38809;53.300;6.614;2023-06-04T14:36:16;3.38;;;1.42;;
52942;SDS011;38809;53.300;6.614;2023-06-04T14:38:41;6.47;;;1.63;;
52942;SDS011;38809;53.300;6.614;2023-06-04T14:41:08;4.15;;;1.50;;
52942;SDS011;38809;53.300;6.614;2023-06-04T14:43:34;5.15;;;1.85;;
52942;SDS011;38809;53.300;6.614;2023-06-04T14:46:00;2.40;;;1.20;;
52942;SDS011;38809;53.300;6.614;2023-06-04T14:48:25;3.10;;;1.58;;
52942;SDS011;38809;53.300;6.614;2023-06-04T14:50:51;2.35;;;1.40;;
52942;SDS011;38809;53.300;6.614;2023-06-04T14:53:18;3.75;;;1.58;;
52942;SDS011;38809;53.300;6.614;2023-06-04T14:55:45;4.15;;;1.60;;
52942;SDS011;38809;53.300;6.614;2023-06-04T14:58:13;4.80;;;1.50;;
52942;SDS011;38809;53.300;6.614;2023-06-04T15:00:41;3.83;;;1.60;;
52942;SDS011;38809;53.300;6.614;2023-06-04T15:03:07;3.55;;;1.63;;
52942;SDS011;38809;53.300;6.614;2023-06-04T15:05:33;4.03;;;1.80;;
52942;SDS011;38809;53.300;6.614;2023-06-04T15:10:25;3.65;;;1.75;;
52942;SDS011;38809;53.300;6.614;2023-06-04T15:12:54;3.55;;;1.83;;
52942;SDS011;38809;53.300;6.614;2023-06-04T15:15:20;4.70;;;1.58;;
52942;SDS011;38809;53.300;6.614;2023-06-04T15:17:47;3.33;;;1.60;;
52942;SDS011;38809;53.300;6.614;2023-06-04T15:20:13;3.33;;;1.73;;
52942;SDS011;38809;53.300;6.614;2023-06-04T15:22:39;4.35;;;1.75;;
52942;SDS011;38809;53.300;6.614;2023-06-04T15:25:06;6.57;;;1.70;;
52942;SDS011;38809;53.300;6.614;2023-06-04T15:27:32;6.90;;;1.98;;
52942;SDS011;38809;53.300;6.614;2023-06-04T15:32:27;2.30;;;1.00;;
52942;SDS011;38809;53.300;6.614;2023-06-04T15:34:52;3.80;;;1.20;;
52942;SDS011;38809;53.300;6.614;2023-06-04T15:37:18;5.45;;;1.33;;
52942;SDS011;38809;53.300;6.614;2023-06-04T15:39:44;6.35;;;1.88;;
52942;SDS011;38809;53.300;6.614;2023-06-04T15:42:10;4.70;;;1.40;;
52942;SDS011;38809;53.300;6.614;2023-06-04T15:44:37;4.50;;;1.80;;